Andrew McCutchen (CF, PIT)

Avg
0.300
HR
20
wOBA
0.385
nERD
3.09

Most Recent Player News

Pittsburgh Pirates centerfielder Andrew McCutchen hit an RBI double and a three-run home run across five plate appearances in Wednesday's win against the Miami Marlins.

What It Means:

This continues a ridiculous month for the former National League MVP. He's slashing .324/.458/.595 in August, and he's gone deep in two of his last four games.

Another year, another MVP-caliber season for McCutchen. With a .391 wOBA, he's on pace for his fourth straight season posting a wOBA .388 or higher. He's 10th in nERD (2.98), and his wOBA slots him eighth among all hitters. We have him projected for the third-highest OPS (.901) over the remainder of the season.

Source: Rotoworld.com
Posted on Wednesday, August 26th, 2015 at 10:11pm EDT

Andrew McCutchen Player Profile

Current Stats
Batting Average0.300
Hits133
SLUG0.521
OBP0.400
wOBA0.385
Statistical RankingsRank
Plate Appearances530#19
Runs73#19
Home Runs20#35
RBI85#8
Stolen Bases6#99
nERD3.09#9

Fantasy RankingsRank
Fantasy Score 7.31 #21
Projected Stats
Batting Average0.297
Hits168
SLUG0.517
OBP0.401
wOBA0.385
Statistical RankingsRank
Plate Appearances676#15
Runs93#18
Home Runs26#32
RBI105#7
Stolen Bases9#92
Batting Average0.297#29
OPS0.918#11

Fantasy RankingsRank
Fantasy Score 7.84 #17
Remaining This Season
Batting Average0.287
Hits35
SLUG0.500
OBP0.397
wOBA0.384
Statistical RankingsRank
Plate Appearances146#9
Runs20#6
Home Runs6#10
RBI20#13
Stolen Bases3#49
Batting Average0.287#5
OPS0.897#4

Fantasy RankingsRank
Fantasy Score 9.61 #5

Projections By Game

Date Opponent PA AB BB 1B 2B 3B HR R RBI SB HBP SO AVG
2015-04-06 Cincinnati 4.52 3.88 0.54 0.72 0.25 0.02 0.16 0.64 0.50 0.16 0.06 0.83 0.284
2015-04-08 Cincinnati 4.58 4.01 0.48 0.82 0.26 0.03 0.25 0.74 0.65 0.17 0.04 0.81 0.325
2015-04-09 Cincinnati 4.56 3.87 0.58 0.63 0.26 0.07 0.27 0.73 0.61 0.07 0.06 0.69 0.310
2015-04-10 Milwaukee 4.57 3.77 0.68 0.70 0.29 0.03 0.17 0.68 0.56 0.12 0.09 0.72 0.306
2015-04-12 Milwaukee 4.63 3.93 0.60 0.79 0.25 0.04 0.18 0.70 0.58 0.13 0.07 0.71 0.312
2015-04-13 Detroit 4.45 3.97 0.38 0.76 0.19 0.01 0.14 0.58 0.59 0.14 0.04 0.83 0.260
2015-04-14 Detroit 4.50 3.90 0.52 0.73 0.20 0.01 0.16 0.58 0.61 0.10 0.04 0.85 0.264
2015-04-15 Detroit 4.53 3.78 0.60 0.62 0.21 0.01 0.17 0.64 0.55 0.12 0.09 0.61 0.251
2015-04-17 Milwaukee 4.29 3.71 0.50 0.75 0.20 0.03 0.18 0.69 0.57 0.13 0.05 0.64 0.291
2015-04-18 Milwaukee 4.31 3.66 0.56 0.68 0.21 0.03 0.12 0.57 0.48 0.13 0.05 0.58 0.268
2015-04-19 Milwaukee 4.43 3.78 0.57 0.73 0.21 0.01 0.17 0.65 0.62 0.10 0.05 0.65 0.280
2015-04-20 Chi. Cubs 4.36 3.82 0.49 0.56 0.26 0.02 0.12 0.52 0.57 0.11 0.01 0.75 0.231
2015-04-21 Chi. Cubs 4.46 3.74 0.62 0.74 0.22 0.00 0.16 0.58 0.58 0.15 0.06 0.63 0.280
2015-04-22 Chi. Cubs 4.45 3.96 0.38 0.75 0.28 0.01 0.20 0.62 0.69 0.11 0.08 0.69 0.297
2015-04-24 Arizona 4.65 4.09 0.44 0.85 0.25 0.02 0.15 0.85 0.67 0.05 0.05 0.58 0.282
2015-04-25 Arizona 4.71 4.13 0.50 0.78 0.26 0.04 0.17 0.81 0.65 0.04 0.03 0.58 0.275
2015-04-26 Arizona 4.66 4.07 0.49 0.82 0.35 0.05 0.18 0.88 0.75 0.06 0.04 0.62 0.312
2015-04-27 Chi. Cubs 4.58 3.91 0.54 0.70 0.23 0.03 0.12 0.64 0.45 0.15 0.11 0.78 0.260
2015-04-28 Chi. Cubs 4.62 3.85 0.67 0.62 0.25 0.01 0.09 0.66 0.47 0.09 0.05 0.82 0.235
2015-04-29 Chi. Cubs 4.58 4.00 0.48 0.67 0.22 0.03 0.22 0.65 0.57 0.10 0.08 0.66 0.270
Date Opponent PA AB BB 1B 2B 3B HR R RBI SB HBP SO AVG
2015-05-01 St. Louis 4.45 3.79 0.57 0.47 0.30 0.03 0.08 0.50 0.37 0.08 0.06 0.60 0.216
2015-05-02 St. Louis 4.50 3.93 0.49 0.66 0.32 0.02 0.10 0.52 0.51 0.11 0.07 0.68 0.263
2015-05-03 St. Louis 4.51 3.93 0.50 0.56 0.24 0.04 0.12 0.52 0.51 0.12 0.04 0.51 0.226
2015-05-05 Cincinnati 4.41 3.84 0.46 0.72 0.24 0.01 0.14 0.59 0.60 0.06 0.07 0.66 0.267
2015-05-06 Cincinnati 4.36 3.78 0.49 0.59 0.24 0.01 0.11 0.52 0.48 0.10 0.06 0.61 0.231
2015-05-07 Cincinnati 4.41 3.81 0.51 0.59 0.20 0.02 0.12 0.60 0.42 0.04 0.06 0.61 0.228
2015-05-08 St. Louis 4.33 3.85 0.40 0.56 0.27 0.05 0.10 0.52 0.49 0.11 0.05 0.45 0.228
2015-05-09 St. Louis 4.37 3.63 0.65 0.49 0.26 0.05 0.08 0.49 0.45 0.17 0.03 0.46 0.215
2015-05-10 St. Louis 4.43 3.90 0.46 0.65 0.26 0.03 0.12 0.62 0.39 0.09 0.04 0.59 0.243
2015-05-11 Philadelphia 4.64 4.02 0.51 0.74 0.31 0.05 0.12 0.72 0.68 0.15 0.03 0.44 0.276
2015-05-12 Philadelphia 4.63 4.08 0.48 0.72 0.29 0.07 0.15 0.72 0.64 0.09 0.03 0.44 0.273
2015-05-13 Philadelphia 4.52 3.93 0.53 0.82 0.31 0.02 0.08 0.57 0.56 0.12 0.03 0.65 0.285
2015-05-15 Chi. Cubs 4.54 4.01 0.45 0.80 0.25 0.03 0.14 0.67 0.60 0.14 0.04 0.49 0.275
2015-05-16 Chi. Cubs 4.50 3.90 0.53 0.62 0.26 0.04 0.20 0.71 0.74 0.13 0.04 0.77 0.265
2015-05-17 Chi. Cubs 4.44 3.87 0.56 0.68 0.18 0.04 0.14 0.59 0.53 0.22 0.00 0.77 0.244
2015-05-19 Minnesota 4.42 3.88 0.42 0.61 0.21 0.02 0.19 0.66 0.57 0.09 0.05 0.50 0.252
2015-05-20 Minnesota 4.51 3.91 0.48 0.76 0.25 0.04 0.22 0.72 0.56 0.13 0.09 0.40 0.303
2015-05-22 N.Y. Mets 4.35 3.90 0.38 0.69 0.23 0.03 0.15 0.60 0.54 0.08 0.05 0.56 0.263
2015-05-23 N.Y. Mets 4.31 3.80 0.44 0.51 0.20 0.04 0.12 0.52 0.43 0.09 0.05 0.57 0.213
2015-05-24 N.Y. Mets 4.34 3.85 0.45 0.70 0.27 0.03 0.11 0.57 0.49 0.13 0.01 0.49 0.259
2015-05-25 Miami 4.43 3.90 0.48 0.64 0.22 0.02 0.14 0.64 0.54 0.12 0.00 0.53 0.234
2015-05-26 Miami 4.41 3.84 0.52 0.61 0.24 0.03 0.13 0.65 0.57 0.12 0.01 0.49 0.238
2015-05-27 Miami 4.40 3.93 0.44 0.60 0.31 0.04 0.14 0.65 0.57 0.12 0.01 0.57 0.253
2015-05-28 San Diego 4.58 3.97 0.56 0.61 0.21 0.02 0.19 0.55 0.52 0.17 0.02 0.55 0.235
2015-05-29 San Diego 4.54 4.02 0.48 0.66 0.29 0.03 0.20 0.54 0.54 0.13 0.01 0.57 0.270
2015-05-30 San Diego 4.53 3.79 0.64 0.63 0.23 0.04 0.12 0.49 0.44 0.23 0.04 0.58 0.247
2015-05-31 San Diego 4.60 3.94 0.59 0.73 0.27 0.03 0.12 0.50 0.48 0.19 0.03 0.55 0.266
Date Opponent PA AB BB 1B 2B 3B HR R RBI SB HBP SO AVG
2015-06-01 San Francisco 4.58 3.95 0.60 0.60 0.24 0.02 0.15 0.63 0.41 0.10 0.01 0.59 0.235
2015-06-02 San Francisco 4.58 3.83 0.70 0.83 0.18 0.03 0.10 0.64 0.47 0.22 0.03 0.46 0.273
2015-06-03 San Francisco 4.54 3.92 0.55 0.74 0.22 0.01 0.14 0.52 0.54 0.12 0.04 0.49 0.259
2015-06-05 Atlanta 4.64 3.92 0.60 0.71 0.21 0.03 0.14 0.62 0.59 0.13 0.06 0.54 0.254
2015-06-06 Atlanta 4.60 4.17 0.39 0.94 0.34 0.00 0.20 0.60 0.83 0.07 0.01 0.51 0.331
2015-06-07 Atlanta 4.56 3.93 0.57 0.64 0.40 0.00 0.19 0.69 0.66 0.10 0.01 0.45 0.290
2015-06-09 Milwaukee 4.43 3.79 0.51 0.72 0.25 0.04 0.16 0.71 0.76 0.08 0.04 0.54 0.282
2015-06-10 Milwaukee 4.44 3.95 0.41 0.67 0.32 0.04 0.22 0.68 0.73 0.08 0.03 0.47 0.296
2015-06-12 Philadelphia 4.40 3.83 0.43 0.70 0.26 0.02 0.13 0.66 0.64 0.10 0.03 0.40 0.265
2015-06-13 Philadelphia 4.38 3.81 0.43 0.64 0.23 0.03 0.20 0.66 0.79 0.09 0.05 0.43 0.266
2015-06-14 Philadelphia 4.32 3.68 0.56 0.71 0.25 0.03 0.11 0.64 0.61 0.09 0.05 0.62 0.278
2015-06-15 Chi. White Sox 4.41 3.57 0.68 0.77 0.21 0.04 0.09 0.54 0.54 0.11 0.10 0.51 0.282
2015-06-16 Chi. White Sox 4.36 3.75 0.56 0.81 0.20 0.04 0.11 0.57 0.52 0.10 0.02 0.52 0.284
2015-06-17 Chi. White Sox 4.68 4.00 0.61 0.84 0.25 0.05 0.12 0.67 0.67 0.12 0.04 0.63 0.291
2015-06-18 Chi. White Sox 4.57 4.13 0.36 0.85 0.31 0.01 0.17 0.72 0.68 0.06 0.03 0.58 0.301
2015-06-19 Washington 4.60 4.01 0.49 0.66 0.35 0.00 0.18 0.71 0.68 0.10 0.08 0.58 0.278
2015-06-20 Washington 4.49 4.04 0.37 0.60 0.22 0.00 0.17 0.53 0.60 0.05 0.03 0.83 0.231
2015-06-21 Washington 4.47 3.91 0.51 0.66 0.25 0.03 0.10 0.56 0.43 0.06 0.03 0.74 0.248
2015-06-23 Cincinnati 4.44 3.92 0.44 0.74 0.32 0.05 0.13 0.60 0.60 0.12 0.04 0.60 0.298
2015-06-24 Cincinnati 4.36 3.81 0.47 0.74 0.21 0.04 0.15 0.59 0.48 0.12 0.04 0.50 0.279
2015-06-25 Cincinnati 4.42 3.74 0.54 0.77 0.21 0.04 0.19 0.65 0.63 0.12 0.09 0.50 0.305
2015-06-26 Atlanta 4.39 3.56 0.77 0.74 0.27 0.05 0.18 0.71 0.58 0.12 0.03 0.43 0.321
2015-06-27 Atlanta 4.45 3.87 0.52 0.79 0.23 0.03 0.13 0.61 0.51 0.10 0.02 0.57 0.283
2015-06-28 Atlanta 4.39 3.79 0.54 0.89 0.20 0.05 0.13 0.62 0.57 0.14 0.02 0.54 0.318
2015-06-30 Detroit 4.60 3.95 0.58 0.65 0.25 0.03 0.23 0.77 0.74 0.09 0.03 0.51 0.278
Date Opponent PA AB BB 1B 2B 3B HR R RBI SB HBP SO AVG
2015-07-01 Detroit 4.60 3.96 0.59 0.62 0.22 0.03 0.19 0.63 0.56 0.10 0.03 0.60 0.252
2015-07-02 Detroit 4.65 4.06 0.49 0.93 0.18 0.01 0.11 0.67 0.51 0.06 0.05 0.53 0.280
2015-07-03 Cleveland 4.42 3.86 0.50 0.66 0.32 0.03 0.19 0.68 0.68 0.09 0.03 0.81 0.292
2015-07-04 Cleveland 4.40 3.87 0.46 0.83 0.34 0.03 0.14 0.60 0.64 0.03 0.03 0.58 0.324
2015-07-05 Cleveland 4.34 3.85 0.43 0.76 0.31 0.04 0.13 0.60 0.56 0.10 0.03 0.71 0.299
2015-07-06 San Diego 4.41 3.85 0.49 0.73 0.25 0.02 0.14 0.64 0.54 0.05 0.03 0.62 0.278
2015-07-07 San Diego 4.35 3.68 0.56 0.54 0.17 0.02 0.15 0.57 0.55 0.05 0.05 0.75 0.226
2015-07-08 San Diego 4.37 3.74 0.55 0.72 0.27 0.02 0.13 0.66 0.55 0.05 0.03 0.61 0.284
2015-07-09 St. Louis 4.36 3.74 0.55 0.59 0.22 0.03 0.11 0.58 0.46 0.04 0.02 0.78 0.240
2015-07-10 St. Louis 4.34 3.79 0.46 0.63 0.27 0.00 0.17 0.54 0.55 0.06 0.04 0.82 0.264
2015-07-11 St. Louis 4.37 3.81 0.53 0.74 0.27 0.00 0.12 0.61 0.53 0.03 0.03 0.59 0.277
2015-07-12 St. Louis 4.37 3.69 0.62 0.68 0.24 0.04 0.18 0.65 0.66 0.05 0.02 0.49 0.289
2015-07-17 Milwaukee 4.56 3.83 0.66 0.70 0.40 0.00 0.22 0.74 0.66 0.11 0.06 0.57 0.316
2015-07-18 Milwaukee 4.64 3.93 0.64 0.67 0.35 0.01 0.20 0.78 0.67 0.03 0.03 0.48 0.286
2015-07-20 Kansas City 4.56 3.81 0.70 0.69 0.17 0.05 0.23 0.67 0.67 0.13 0.02 0.53 0.283
2015-07-21 Kansas City 4.58 3.81 0.68 0.84 0.27 0.01 0.19 0.67 0.59 0.06 0.03 0.55 0.316
2015-07-22 Kansas City 4.55 3.81 0.68 0.71 0.18 0.03 0.16 0.55 0.55 0.07 0.01 0.58 0.264
2015-07-23 Washington 4.35 3.75 0.53 0.81 0.22 0.01 0.12 0.59 0.51 0.05 0.05 0.46 0.287
2015-07-24 Washington 4.33 3.82 0.43 0.57 0.27 0.02 0.20 0.62 0.57 0.06 0.05 0.74 0.257
2015-07-25 Washington 4.38 3.70 0.59 0.62 0.28 0.01 0.12 0.52 0.50 0.12 0.05 0.66 0.254
2015-07-26 Washington 4.29 3.73 0.51 0.70 0.22 0.02 0.16 0.56 0.47 0.06 0.03 0.68 0.270
2015-07-28 Minnesota 4.58 3.91 0.60 0.69 0.29 0.03 0.21 0.86 0.70 0.05 0.04 0.39 0.289
2015-07-29 Minnesota 4.62 3.94 0.57 0.83 0.33 0.01 0.18 0.82 0.73 0.09 0.06 0.46 0.323
2015-07-30 Cincinnati 4.64 3.95 0.63 0.71 0.29 0.03 0.18 0.81 0.66 0.07 0.02 0.58 0.282
2015-07-31 Cincinnati 4.63 3.88 0.69 0.64 0.31 0.03 0.20 0.67 0.65 0.10 0.04 0.57 0.278
Date Opponent PA AB BB 1B 2B 3B HR R RBI SB HBP SO AVG
2015-08-01 Cincinnati 4.54 3.94 0.47 0.79 0.22 0.04 0.24 0.68 0.70 0.03 0.10 0.58 0.302
2015-08-02 Cincinnati 4.55 3.80 0.68 0.58 0.24 0.01 0.21 0.73 0.68 0.11 0.02 0.70 0.252
2015-08-04 Chi. Cubs 4.33 3.83 0.43 0.59 0.30 0.01 0.09 0.48 0.41 0.02 0.06 0.73 0.238
2015-08-05 Chi. Cubs 4.42 3.75 0.57 0.70 0.29 0.02 0.17 0.66 0.53 0.04 0.05 0.67 0.287
2015-08-07 L.A. Dodgers 4.30 3.86 0.37 0.68 0.27 0.00 0.10 0.39 0.39 0.09 0.05 0.71 0.251
2015-08-08 L.A. Dodgers 4.35 3.65 0.62 0.82 0.19 0.01 0.13 0.64 0.53 0.05 0.04 0.60 0.288
2015-08-09 L.A. Dodgers 4.40 3.62 0.68 0.75 0.25 0.01 0.15 0.56 0.62 0.11 0.05 0.58 0.292
2015-08-11 St. Louis 4.47 3.73 0.65 0.73 0.33 0.01 0.17 0.63 0.61 0.04 0.05 0.68 0.304
2015-08-12 St. Louis 4.46 3.68 0.73 0.74 0.25 0.01 0.14 0.56 0.59 0.05 0.04 0.65 0.282
2015-08-13 St. Louis 4.45 3.68 0.67 0.59 0.31 0.01 0.14 0.57 0.45 0.03 0.08 0.75 0.258
2015-08-14 N.Y. Mets 4.53 3.81 0.63 0.72 0.27 0.03 0.20 0.59 0.54 0.01 0.05 0.61 0.289
2015-08-15 N.Y. Mets 4.56 3.87 0.61 0.80 0.34 0.03 0.21 0.56 0.77 0.11 0.04 0.54 0.322
2015-08-17 Arizona 4.35 3.56 0.72 0.70 0.29 0.01 0.23 0.72 0.66 0.09 0.05 0.45 0.315
2015-08-18 Arizona 4.42 3.66 0.68 0.62 0.21 0.05 0.26 0.69 0.55 0.07 0.04 0.43 0.283
2015-08-19 Arizona 4.40 3.68 0.66 0.72 0.31 0.02 0.24 0.72 0.67 0.07 0.01 0.39 0.320
2015-08-20 San Francisco 4.42 3.73 0.64 0.72 0.28 0.01 0.18 0.53 0.61 0.08 0.03 0.65 0.290
2015-08-21 San Francisco 4.33 3.75 0.51 0.59 0.36 0.01 0.14 0.52 0.51 0.03 0.02 0.72 0.264
2015-08-22 San Francisco 4.38 3.65 0.64 0.80 0.25 0.02 0.15 0.52 0.57 0.05 0.05 0.52 0.301
2015-08-23 San Francisco 4.41 3.67 0.64 0.69 0.30 0.01 0.20 0.58 0.73 0.11 0.04 0.63 0.296
2015-08-24 Miami 4.60 3.69 0.83 0.80 0.24 0.01 0.17 0.53 0.69 0.07 0.05 0.57 0.300
2015-08-25 Miami 4.58 3.83 0.65 0.76 0.29 0.00 0.15 0.64 0.61 0.12 0.06 0.46 0.280
2015-08-26 Miami 4.60 3.87 0.63 0.71 0.23 0.03 0.21 0.65 0.70 0.07 0.02 0.73 0.280
2015-08-27 Miami 4.63 3.86 0.69 0.83 0.23 0.01 0.13 0.57 0.53 0.12 0.04 0.44 0.278
2015-08-28 Colorado 4.42 3.66 0.68 0.64 0.25 0.03 0.19 0.65 0.66 0.09 0.07 0.61 0.283
2015-08-29 Colorado 4.44 3.73 0.64 0.65 0.27 0.04 0.20 0.68 0.65 0.05 0.03 0.57 0.289
2015-08-30 Colorado 4.44 3.60 0.76 0.65 0.24 0.05 0.12 0.59 0.53 0.07 0.07 0.59 0.275
Date Opponent PA AB BB 1B 2B 3B HR R RBI SB HBP SO AVG
2015-09-01 Milwaukee 4.60 3.78 0.75 0.59 0.23 0.02 0.20 0.68 0.57 0.04 0.04 0.68 0.255
2015-09-02 Milwaukee 4.65 3.66 0.89 0.47 0.25 0.02 0.17 0.67 0.49 0.08 0.04 0.74 0.230
2015-09-05 St. Louis 4.43 3.78 0.57 0.82 0.24 0.01 0.10 0.55 0.52 0.11 0.04 0.62 0.291

Statlines By Game

Date Opponent PA AB BB 1B 2B 3B HR R RBI SB HBP SO AVG
2015-04-06 Cincinnati 4 4 0 1 0 0 1 1 2 0 0 0 0.500
2015-04-08 Cincinnati 6 5 1 0 0 0 0 1 0 0 0 0 0.000
2015-04-09 Cincinnati 4 3 1 0 0 0 0 0 0 0 0 1 0.000
2015-04-10 Milwaukee 5 4 1 0 0 0 0 1 0 0 0 1 0.000
2015-04-12 Milwaukee 5 5 0 1 0 0 1 2 4 0 0 0 0.400
2015-04-13 Detroit 4 3 0 1 0 0 0 0 1 0 0 2 0.333
2015-04-14 Detroit 3 3 0 0 0 0 0 0 0 0 0 0 0.000
2015-04-15 Detroit 3 2 0 1 0 0 0 0 0 0 1 0 0.500
2015-04-17 Milwaukee 4 4 0 0 1 0 0 0 1 0 0 1 0.250
2015-04-18 Milwaukee 4 1 2 0 0 0 0 2 0 0 1 0 0.000
2015-04-19 Milwaukee 4 4 0 1 0 0 0 0 1 0 0 0 0.250
2015-04-20 Chi. Cubs 4 4 0 1 1 0 0 0 1 0 0 2 0.500
2015-04-21 Chi. Cubs 5 3 1 0 0 0 0 0 0 0 1 2 0.000
2015-04-22 Chi. Cubs 4 4 0 0 0 0 0 1 0 0 0 0 0.000
2015-04-23 Chi. Cubs 1 1 0 0 0 0 0 0 0 0 0 1 0.000
2015-04-24 Arizona 4 3 1 0 0 0 0 1 0 0 0 1 0.000
2015-04-25 Arizona 4 4 0 0 0 0 0 0 0 0 0 1 0.000
2015-04-26 Arizona 5 2 2 1 0 0 0 1 1 0 0 0 0.500
2015-04-27 Chi. Cubs 4 4 0 0 0 0 0 0 0 0 0 1 0.000
2015-04-28 Chi. Cubs 4 4 0 1 0 0 0 1 0 0 0 0 0.250
2015-04-29 Chi. Cubs 5 5 0 1 0 1 0 1 2 0 0 2 0.400
Date Opponent PA AB BB 1B 2B 3B HR R RBI SB HBP SO AVG
2015-05-01 St. Louis 4 4 0 1 0 0 0 0 0 0 0 2 0.250
2015-05-02 St. Louis 6 5 1 1 0 0 0 0 0 0 0 0 0.200
2015-05-03 St. Louis 7 7 0 1 0 0 0 0 0 0 0 0 0.143
2015-05-05 Cincinnati 4 4 0 0 0 0 0 0 0 0 0 0 0.000
2015-05-06 Cincinnati 4 4 0 1 0 0 0 0 0 0 0 0 0.250
2015-05-07 Cincinnati 5 4 1 2 1 0 0 2 1 1 0 0 0.750
2015-05-08 St. Louis 5 5 0 1 1 0 0 1 0 0 0 1 0.400
2015-05-09 St. Louis 4 4 0 0 1 0 0 0 0 0 0 0 0.250
2015-05-10 St. Louis 4 3 1 0 1 0 0 1 0 0 0 1 0.333
2015-05-11 Philadelphia 4 2 1 0 0 0 0 1 1 0 0 2 0.000
2015-05-12 Philadelphia 4 4 0 1 0 0 1 1 2 0 0 0 0.500
2015-05-13 Philadelphia 4 3 0 1 0 0 0 0 2 1 1 0 0.333
2015-05-14 Philadelphia 1 1 0 0 0 0 0 0 0 0 0 0 0.000
2015-05-15 Chi. Cubs 7 4 3 1 0 0 1 1 3 0 0 0 0.500
2015-05-16 Chi. Cubs 4 4 0 0 0 0 0 0 0 0 0 1 0.000
2015-05-17 Chi. Cubs 4 3 1 1 0 0 0 0 0 0 0 1 0.333
2015-05-19 Minnesota 5 5 0 0 0 0 0 0 0 0 0 1 0.000
2015-05-20 Minnesota 6 5 0 2 0 0 1 1 1 0 1 1 0.600
2015-05-22 N.Y. Mets 4 3 0 0 1 0 0 1 0 0 1 1 0.333
2015-05-23 N.Y. Mets 4 4 0 1 1 0 1 1 2 0 0 0 0.750
2015-05-24 N.Y. Mets 5 3 2 1 0 0 1 2 2 0 0 0 0.667
2015-05-25 Miami 4 4 0 0 0 0 0 0 0 0 0 1 0.000
2015-05-26 Miami 4 4 0 1 0 0 0 0 0 0 0 0 0.250
2015-05-27 Miami 4 3 1 1 1 0 0 1 0 1 0 0 0.667
2015-05-28 San Diego 5 5 0 1 2 0 0 2 2 0 0 1 0.600
2015-05-29 San Diego 4 3 1 0 0 0 0 0 0 0 0 1 0.000
2015-05-30 San Diego 5 3 2 1 1 0 0 1 1 0 0 0 0.667
2015-05-31 San Diego 3 3 0 1 0 0 0 0 0 0 0 1 0.333
Date Opponent PA AB BB 1B 2B 3B HR R RBI SB HBP SO AVG
2015-06-01 San Francisco 4 2 0 1 0 0 0 0 2 0 0 0 0.500
2015-06-02 San Francisco 5 5 0 2 1 1 0 2 2 0 0 0 0.800
2015-06-03 San Francisco 4 3 1 1 0 0 0 1 0 0 0 1 0.333
2015-06-05 Atlanta 5 5 0 1 1 0 0 1 1 0 0 0 0.400
2015-06-06 Atlanta 4 4 0 0 0 0 1 1 2 0 0 0 0.250
2015-06-07 Atlanta 5 5 0 0 0 0 0 0 0 0 0 2 0.000
2015-06-09 Milwaukee 4 4 0 0 1 0 0 0 0 0 0 1 0.250
2015-06-10 Milwaukee 4 3 1 2 0 0 0 0 0 0 0 0 0.667
2015-06-12 Philadelphia 6 6 0 0 0 0 0 0 0 0 0 2 0.000
2015-06-13 Philadelphia 4 3 1 1 0 0 0 0 2 0 0 0 0.333
2015-06-14 Philadelphia 5 4 1 1 0 0 0 0 0 0 0 1 0.250
2015-06-15 Chi. White Sox 4 4 0 1 1 0 0 2 1 0 0 1 0.500
2015-06-16 Chi. White Sox 4 3 1 2 0 0 0 0 1 0 0 0 0.667
2015-06-17 Chi. White Sox 4 4 0 2 0 0 0 1 1 0 0 0 0.500
2015-06-18 Chi. White Sox 5 5 0 1 0 0 0 0 0 0 0 1 0.200
2015-06-19 Washington 4 4 0 0 0 0 0 0 0 0 0 3 0.000
2015-06-20 Washington 3 3 0 0 0 0 0 0 0 0 0 2 0.000
2015-06-21 Washington 3 2 1 0 1 0 0 0 0 0 0 1 0.500
2015-06-23 Cincinnati 4 3 1 0 1 0 1 1 2 0 0 0 0.667
2015-06-24 Cincinnati 4 3 1 1 0 0 0 0 0 0 0 1 0.333
2015-06-25 Cincinnati 6 4 2 0 1 0 0 1 0 0 0 1 0.250
2015-06-26 Atlanta 5 4 0 1 1 0 0 2 0 1 1 1 0.500
2015-06-27 Atlanta 1 0 0 0 0 0 0 0 0 0 1 0 0.000
2015-06-28 Atlanta 4 4 0 1 0 0 0 0 0 0 0 0 0.250
2015-06-30 Detroit 8 5 3 2 0 0 0 0 1 1 0 2 0.400
Date Opponent PA AB BB 1B 2B 3B HR R RBI SB HBP SO AVG
2015-07-01 Detroit 5 5 0 1 0 0 0 1 0 0 0 1 0.200
2015-07-02 Detroit 5 3 1 0 1 0 0 1 2 0 0 0 0.333
2015-07-03 Cleveland 4 2 2 0 0 0 1 1 2 0 0 0 0.500
2015-07-04 Cleveland 3 3 0 1 0 0 0 0 0 0 0 1 0.333
2015-07-05 Cleveland 4 3 1 0 1 0 0 0 2 0 0 1 0.333
2015-07-06 San Diego 4 2 2 0 1 0 0 2 0 0 0 0 0.500
2015-07-07 San Diego 4 4 0 1 1 0 0 0 1 0 0 1 0.500
2015-07-08 San Diego 4 3 1 1 0 0 0 0 1 0 0 0 0.333
2015-07-09 St. Louis 4 4 0 0 0 0 1 1 1 0 0 1 0.250
2015-07-10 St. Louis 4 4 0 1 0 0 0 0 0 0 0 1 0.250
2015-07-11 St. Louis 7 4 3 0 0 0 1 2 2 0 0 1 0.250
2015-07-12 St. Louis 5 5 0 0 0 0 0 0 0 0 0 3 0.000
2015-07-17 Milwaukee 4 4 0 0 0 0 0 0 0 0 0 1 0.000
2015-07-18 Milwaukee 5 2 3 1 0 0 0 2 0 0 0 0 0.500
2015-07-20 Kansas City 5 5 0 1 1 0 0 0 1 0 0 3 0.400
2015-07-21 Kansas City 4 4 0 0 0 0 0 0 0 0 0 1 0.000
2015-07-22 Kansas City 4 4 0 1 0 0 0 0 0 0 0 2 0.250
2015-07-23 Washington 4 4 0 1 0 0 1 2 2 0 0 0 0.500
2015-07-24 Washington 4 4 0 1 0 0 0 0 0 0 0 1 0.250
2015-07-25 Washington 4 4 0 1 0 0 0 0 1 0 0 3 0.250
2015-07-26 Washington 4 3 1 1 0 0 0 0 1 0 0 0 0.333
2015-07-28 Minnesota 5 5 0 0 0 0 0 0 0 0 0 2 0.000
2015-07-29 Minnesota 5 4 1 1 0 0 1 2 3 0 0 1 0.500
2015-07-30 Cincinnati 5 5 0 3 0 0 0 2 1 0 0 1 0.600
2015-07-31 Cincinnati 4 4 0 0 0 0 1 1 1 0 0 2 0.250
Date Opponent PA AB BB 1B 2B 3B HR R RBI SB HBP SO AVG
2015-08-01 Cincinnati 4 3 1 0 0 0 0 0 0 0 0 1 0.000
2015-08-02 Cincinnati 4 3 0 0 0 0 0 0 0 0 1 2 0.000
2015-08-04 Chi. Cubs 4 2 2 1 0 0 0 0 0 0 0 0 0.500
2015-08-05 Chi. Cubs 4 2 1 0 0 0 1 2 2 0 0 0 0.500
2015-08-07 L.A. Dodgers 5 3 2 1 1 0 0 2 1 0 0 1 0.667
2015-08-08 L.A. Dodgers 4 3 1 2 1 0 0 1 1 1 0 0 1.000
2015-08-09 L.A. Dodgers 6 6 0 1 0 0 1 2 4 0 0 2 0.333
2015-08-11 St. Louis 4 4 0 0 0 0 0 0 0 0 0 2 0.000
2015-08-12 St. Louis 4 4 0 0 0 1 1 1 2 0 0 1 0.500
2015-08-13 St. Louis 5 4 1 0 1 0 0 2 1 0 0 1 0.250
2015-08-14 N.Y. Mets 5 2 3 0 0 0 0 0 0 0 0 2 0.000
2015-08-15 N.Y. Mets 6 4 1 0 0 0 0 1 0 0 1 3 0.000
2015-08-16 N.Y. Mets 1 0 1 0 0 0 0 0 0 0 0 0 0.000
2015-08-17 Arizona 4 3 1 0 0 0 0 0 0 0 0 1 0.000
2015-08-18 Arizona 7 6 0 2 0 0 0 0 1 0 0 1 0.333
2015-08-19 Arizona 4 3 1 2 0 0 0 0 0 0 0 0 0.667
2015-08-20 San Francisco 4 4 0 0 0 0 0 0 0 0 0 1 0.000
2015-08-21 San Francisco 4 4 0 1 1 0 0 1 0 0 0 0 0.500
2015-08-22 San Francisco 3 2 1 0 0 0 0 0 0 0 0 1 0.000
2015-08-23 San Francisco 5 4 1 1 0 0 1 2 1 0 0 0 0.500
2015-08-24 Miami 5 5 0 1 1 0 0 0 2 0 0 1 0.400
2015-08-25 Miami 4 3 0 1 1 0 0 1 0 0 1 0 0.667
2015-08-26 Miami 5 5 0 0 1 0 1 1 4 0 0 2 0.400

DFS Performance

  FanDuel DraftKings FantasyFeud DraftDay FantasyAces Draftster FantasyScore
Date Opponent FP Value FP Value FP Value FP Value FP Value FP Value FP Value
2015-04-06 Cincinnati 7.5 1.5 19 3.7 8.5 0 38 3.8 8.75 1.6 8 0.9 8 1.2
2015-04-08 Cincinnati 0.75 0.2 4 0.8 -3 -0.3 5 0.5 2.25 0.4 2 0.3 2 0.3
2015-04-09 Cincinnati 0.25 0.1 2 0.4 -2.5 -0.3 2 0.2 0.5 0.1 0.25 0 1 0.2
2015-04-10 Milwaukee 1 0.2 4 0.8 -2 -0.3 6 0.5 1.75 0.3 1.25 0.2 2 0.3
2015-04-12 Milwaukee 10.25 2.2 25 5 13 1.6 52 4.5 12.5 2.2 11 0 11 1.8
2015-04-13 Detroit 1.5 0.3 5 0.9 1 0.1 8 0.7 1.25 0.2 0.5 0.1 2 0.3
2015-04-14 Detroit -0.75 -0.2 0 0 -3 -0.4 -3 -0.3 0 0 0 0 0 0
2015-04-15 Detroit 1.75 0.4 3 0.6 -0.5 -0.1 9 0.8 1.5 0.3 0 0 1 0.2
2015-04-17 Milwaukee 2.25 0.5 7 1.4 1 0.1 12 1.1 2.75 0.5 2.25 0.3 3 0.5
2015-04-18 Milwaukee 4.75 1 10 2 3.5 0.4 24 2.1 5 0.9 5 0.6 5 0.8
2015-04-19 Milwaukee 1.25 0.3 5 1 0 0 7 0.6 2.25 0.4 2 0.3 2 0.3
2015-04-20 Chi. Cubs 3.5 0.8 10 2 3 0.3 18 1.6 3.25 0.6 2.5 0.3 4 0.6
2015-04-21 Chi. Cubs 1.25 0.3 4 0.8 -2 -0.2 7 0.6 0.5 0.1 0.5 0.1 2 0.3
2015-04-22 Chi. Cubs 0 0 2 0.4 -2.5 -0.3 1 0.1 1.25 0.2 1 0.1 1 0.2
2015-04-23 Chi. Cubs -0.25 -0.1 0 0 -1 -0.1 -1 -0.1 -0.5 -0.1 -0.75 0 0 0
2015-04-24 Arizona 1.25 0.3 4 0.8 -1 -0.1 7 0.6 1.75 0.3 1.25 0.2 2 0.3
2015-04-25 Arizona -1 -0.2 0 0 -4 -0.5 -4 -0.4 -0.5 -0.1 -0.75 -0.1 0 0
2015-04-26 Arizona 4.75 1.2 11 2.1 4.5 0.6 24 2.2 5.5 1 5 0.6 5 0.8
2015-04-27 Chi. Cubs -1 -0.3 0 0 -4 -0.5 -4 -0.4 -0.5 -0.1 -0.75 -0.1 0 0
2015-04-28 Chi. Cubs 1.25 0.3 5 1 -0.5 -0.1 7 0.6 2.25 0.4 2 0.2 2 0.3
2015-04-29 Chi. Cubs 6.25 1.6 17 3.5 6.5 0.8 32 3 6.75 1.3 5.5 0.7 7 1.2
  FanDuel DraftKings FantasyFeud DraftDay FantasyAces Draftster FantasyScore
Date Opponent FP Value FP Value FP Value FP Value FP Value FP Value FP Value
2015-05-01 St. Louis 0.25 0.1 3 0.7 -2 -0.3 2 0.2 0 0 -0.5 -0.1 1 0.2
2015-05-02 St. Louis 1 0.2 5 1.1 -2.5 -0.3 6 0.6 2 0.4 2 0.3 2 0.4
2015-05-03 St. Louis -0.5 -0.1 3 0.7 -5 -0.6 -1 -0.1 1 0.2 1 0.1 1 0.2
2015-05-05 Cincinnati -1 -0.3 0 0 -4 -0.5 -4 -0.4 0 0 0 0 0 0
2015-05-06 Cincinnati 0.25 0.1 3 0.6 -2 -0.3 2 0.2 1 0.2 1 0.1 1 0.2
2015-05-07 Cincinnati 9.75 2.6 24 5 10.5 1.4 44 4.6 10.75 2.1 10 1.3 10 2.1
2015-05-08 St. Louis 3.25 0.9 10 2.2 1.5 0.2 17 1.8 3.75 0.8 3.25 0.4 4 0.8
2015-05-09 St. Louis 1.25 0.3 5 1 -1 -0.1 7 0.7 2 0.4 2 0.3 2 0.4
2015-05-10 St. Louis 3.5 0.9 9 1.7 2 0.2 18 1.8 3.75 0.8 3.25 0.4 4 0.8
2015-05-11 Philadelphia 2.5 0.7 6 1.1 2 0.3 13 1.3 2.5 0.5 1.5 0.2 3 0.6
2015-05-12 Philadelphia 7.5 2 19 3.6 8.5 1 38 3.6 8.75 1.8 8 1.1 8 1.7
2015-05-13 Philadelphia 5.5 1.4 14 3.1 5.5 0.7 23 2.2 6 1.2 6 0.8 6 1.3
2015-05-14 Philadelphia -0.25 -0.1 0 0 -1 -0.1 -1 -0.1 0 0 0 0 0 0
2015-05-15 Chi. Cubs 11.5 2.8 27 6 12 1.5 58 5.7 13 2.5 12 1.6 12 2.5
2015-05-16 Chi. Cubs -1 -0.3 0 0 -4 -0.6 -4 -0.4 -0.5 -0.1 -0.75 -0.1 0 0
2015-05-17 Chi. Cubs 1.5 0.4 5 1 -0.5 -0.1 8 0.7 1.5 0.3 1.25 0.2 2 0.4
2015-05-19 Minnesota -1.25 -0.3 0 0 -5 -0.6 -5 -0.5 -0.5 -0.1 -0.75 -0.1 0 0
2015-05-20 Minnesota 8.5 2.2 22 4.2 8 1 43 4.1 8.5 1.7 8.25 1.2 9 1.7
2015-05-22 N.Y. Mets 3.5 0.9 9 1.8 2 0.2 18 1.8 3.25 0.6 3.25 0.5 4 0.8
2015-05-23 N.Y. Mets 9.75 2.4 24 5.3 11.5 1.4 49 4.9 10.75 2.1 10 1.4 10 1.9
2015-05-24 N.Y. Mets 10.75 2.6 25 4.7 12 1.4 54 5.3 12 2.4 11 1.5 11 2.1
2015-05-25 Miami -1 -0.2 0 0 -4 -0.4 -4 -0.4 -0.5 -0.1 -0.75 -0.1 0 0
2015-05-26 Miami 0.25 0.1 3 0.6 -2 -0.2 2 0.2 1 0.2 1 0.3 1 0.2
2015-05-27 Miami 6.75 1.5 17 3.6 6 0.7 29 2.6 7.25 1.4 7 2.3 7 1.2
2015-05-28 San Diego 8.5 2 21 4.5 10 1.1 43 4.2 9.5 1.8 8.25 1.2 9 1.6
2015-05-29 San Diego 0.25 0.1 2 0.4 -2.5 -0.3 2 0.2 0.5 0.1 0.25 0 1 0.2
2015-05-30 San Diego 6.75 1.4 16 3.3 6.5 0.7 34 3.2 7.5 1.4 7 1 7 1.2
2015-05-31 San Diego 0.5 0.1 1 0.2 -2 -0.2 3 0.3 0.5 0.1 -1.75 -0.3 0 0
  FanDuel DraftKings FantasyFeud DraftDay FantasyAces Draftster FantasyScore
Date Opponent FP Value FP Value FP Value FP Value FP Value FP Value FP Value
2015-06-01 San Francisco 2.75 0.6 7 1.4 4 0.4 14 1.2 3.5 0.7 3 0.4 3 0.5
2015-06-02 San Francisco 10.75 2.3 27 5.3 13 1.4 54 4.9 12 2.3 11 1.5 11 1.9
2015-06-03 San Francisco 2.5 0.5 7 1.5 1 0.1 13 1.2 2.75 0.5 2.25 0.3 3 0.5
2015-06-05 Atlanta 4.25 0.9 12 2.2 3.5 0.4 22 2 5.5 1 5 0.7 5 0.9
2015-06-06 Atlanta 6.25 1.3 16 3.5 6.5 0.7 32 2.8 7.75 1.5 7 1 7 1.2
2015-06-07 Atlanta -1.25 -0.3 0 0 -5 -0.6 -5 -0.4 -1 -0.2 -1.5 -0.2 0 0
2015-06-09 Milwaukee 1.25 0.3 5 0.9 -1 -0.1 7 0.6 1.5 0.3 1.25 0.2 2 0.3
2015-06-10 Milwaukee 2.75 0.6 8 1.6 1.5 0.2 14 1.3 3 0.6 3 0.4 3 0.5
2015-06-12 Philadelphia -1.5 -0.3 0 0 -6 -0.7 -6 -0.6 -1 -0.2 -1.5 -0.2 0 0
2015-06-13 Philadelphia 3.5 0.7 9 1.7 3.5 0.4 18 1.7 4.5 0.8 4 0.6 4 0.7
2015-06-14 Philadelphia 1.25 0.3 5 1 -1.5 -0.2 7 0.7 1.5 0.3 1.25 0.2 2 0.3
2015-06-15 Chi. White Sox 5.5 1.1 14 2.8 6 0.7 28 2.7 6.25 1.2 5.25 0.7 6 1
2015-06-16 Chi. White Sox 3.75 0.8 10 2.1 3.5 0.4 19 1.9 4.25 0.8 4 0.5 4 0.7
2015-06-17 Chi. White Sox 3.5 0.8 10 2 3.5 0.4 18 1.8 4.5 0.8 4 0.5 4 0.7
2015-06-18 Chi. White Sox 0 0 3 0.6 -3 -0.3 1 0.1 0.5 0.1 0.25 0 1 0.2
2015-06-19 Washington -1 -0.2 0 0 -4 -0.5 -4 -0.4 -1.5 -0.3 -2.25 -0.3 0 0
2015-06-20 Washington -0.75 -0.2 0 0 -3 -0.4 -3 -0.3 -1 -0.2 -1.5 -0.2 0 0
2015-06-21 Washington 2.75 0.6 7 1.6 1.5 0.2 14 1.5 2.5 0.5 2.25 0.3 3 0.5
2015-06-23 Cincinnati 9.75 2.4 23 5.5 11 1.5 49 5.1 10.75 2 10 1.4 10 1.7
2015-06-24 Cincinnati 1.5 0.4 5 1.1 -0.5 -0.1 8 0.8 1.5 0.3 1.25 0.2 2 0.3
2015-06-25 Cincinnati 4.25 1 11 2.2 1.5 0.2 22 2.2 4.75 0.9 4.25 0.6 5 0.9
2015-06-26 Atlanta 7.5 1.8 19 3.8 6.5 0.8 33 3.3 7.5 1.4 7.25 1.1 8 1.4
2015-06-27 Atlanta 1 0.2 2 0.4 0.5 0.1 5 0.5 0.5 0.1 1 0.1 1 0.2
2015-06-28 Atlanta 0.25 0.1 3 0.7 -2 -0.2 2 0.2 1 0.2 1 0.1 1 0.2
2015-06-30 Detroit 7.25 1.7 19 4 4.5 0.5 32 3.2 7.25 1.3 6.5 0.9 8 1.4
  FanDuel DraftKings FantasyFeud DraftDay FantasyAces Draftster FantasyScore
Date Opponent FP Value FP Value FP Value FP Value FP Value FP Value FP Value
2015-07-01 Detroit 1 0.2 5 1 -1.5 -0.2 6 0.6 1.75 0.3 1.25 0.2 2 0.3
2015-07-02 Detroit 5.5 1.3 13 2.7 6 0.7 28 2.6 6.75 1.3 6 0.7 6 1
2015-07-03 Cleveland 8.75 2.1 20 4.2 9.5 1.2 44 4.1 9.75 1.8 9 1.3 9 1.6
2015-07-04 Cleveland 0.5 0.1 3 0.6 -1 -0.1 3 0.3 0.5 0.1 0.25 0 1 0.2
2015-07-05 Cleveland 4.5 1 11 2.4 4.5 0.5 23 2.1 5 0.9 4.25 0.6 5 0.9
2015-07-06 San Diego 5.75 1.3 13 2.8 5 0.6 29 2.7 6.5 1.2 6 0.9 6 1
2015-07-07 San Diego 3.5 0.8 10 2.2 3 0.4 18 1.6 3.75 0.7 3.25 0.5 4 0.7
2015-07-08 San Diego 2.5 0.5 7 1.5 1.5 0.2 13 1.2 3.25 0.6 3 0.4 3 0.5
2015-07-09 St. Louis 5.25 1.1 14 2.9 4.5 0.5 27 2.4 6 1.1 5.25 0.8 6 1
2015-07-10 St. Louis 0.25 0.1 3 0.6 -2 -0.2 2 0.2 0.5 0.1 0.25 0 1 0.2
2015-07-11 St. Louis 10.25 2.2 24 5 9.5 1.1 52 4.6 11.5 2.1 10.25 1.5 11 1.9
2015-07-12 St. Louis -1.25 -0.3 0 0 -5 -0.6 -5 -0.4 -1.5 -0.3 -2.25 -0.3 0 0
2015-07-17 Milwaukee -1 -0.2 0 0 -4 -0.4 -4 -0.3 -0.5 -0.1 -0.75 -0.1 0 0
2015-07-18 Milwaukee 5.75 1.2 13 2.7 4.5 0.5 29 2.7 6.5 1.2 6 0.8 6 1
2015-07-20 Kansas City 3.25 0.7 10 2.2 2 0.2 17 1.6 2.75 0.5 1.75 0.2 4 0.7
2015-07-21 Kansas City -1 -0.2 0 0 -4 -0.5 -4 -0.4 -0.5 -0.1 -0.75 -0.1 0 0
2015-07-22 Kansas City 0.25 0.1 3 0.6 -2 -0.2 2 0.2 0 0 -0.5 -0.1 1 0.2
2015-07-23 Washington 8.5 1.8 21 4.8 10 1.2 43 4.2 10 1.9 9 1.3 9 1.5
2015-07-24 Washington 0.25 0.1 3 0.8 -2 -0.2 2 0.2 0.5 0.1 0.25 0 1 0.2
2015-07-25 Washington 1.25 0.3 5 1.2 0 0 7 0.7 0.75 0.1 -0.25 -0 2 0.3
2015-07-26 Washington 2.5 0.5 7 1.5 1.5 0.2 13 1.3 3.25 0.6 3 0.4 3 0.5
2015-07-28 Minnesota -1.25 -0.3 0 0 -5 -0.6 -5 -0.5 -1 -0.2 -1.5 -0.2 0 0
2015-07-29 Minnesota 10.5 2.3 25 5.2 12.5 1.6 53 5.3 11.75 2.3 10.25 1.4 11 1.8
2015-07-30 Cincinnati 5.5 1.3 15 3.1 6 0.7 28 2.8 6.25 1.2 5.25 0.6 6 1
2015-07-31 Cincinnati 5.25 1.1 14 2.9 4.5 0.5 27 2.6 5.5 1.1 4.5 0.6 6 1
  FanDuel DraftKings FantasyFeud DraftDay FantasyAces Draftster FantasyScore
Date Opponent FP Value FP Value FP Value FP Value FP Value FP Value FP Value
2015-08-01 Cincinnati 0.25 0.1 2 0.4 -2.5 -0.3 2 0.2 0.5 0.1 0.25 0 1 0.2
2015-08-02 Cincinnati 0.25 0.1 2 0.5 -2.5 -0.3 2 0.2 -0.5 -0.1 -0.5 -0.1 1 0.2
2015-08-04 Chi. Cubs 2.75 0.6 7 1.7 1 0.1 14 1.4 3 0.6 3 0.4 3 0.5
2015-08-05 Chi. Cubs 8.75 2 20 4.4 10.5 1.2 44 4.3 10 1.9 9 1.3 9 1.5
2015-08-07 L.A. Dodgers 7.75 1.7 18 4.5 8 1 39 3.5 8.25 1.5 7.25 0.9 8 1.3
2015-08-08 L.A. Dodgers 9 2 22 4.9 10 1.2 40 3.6 9.5 1.8 9 1.3 9 1.5
2015-08-09 L.A. Dodgers 10 2 25 5.6 12 1.3 51 4.4 11.5 2.1 9.5 1.2 11 1.8
2015-08-11 St. Louis -1 -0.2 0 0 -4 -0.4 -4 -0.3 -1 -0.2 -1.5 -0.2 0 0
2015-08-12 St. Louis 9.5 1.9 24 4.9 10.5 1.1 48 3.9 10.25 1.9 9.25 1.3 10 1.6
2015-08-13 St. Louis 5.25 1.1 13 2.8 4.5 0.5 27 2.3 6.25 1.1 5.25 0.8 6 1
2015-08-14 N.Y. Mets 2.5 0.5 6 1.3 -0.5 -0.1 13 1.1 2 0.4 1.5 0.2 3 0.5
2015-08-15 N.Y. Mets 2 0.4 6 1.3 -1.5 -0.2 11 0.9 1.25 0.2 0.75 0.1 3 0.5
2015-08-16 N.Y. Mets 1 0.2 2 0.4 0.5 0.1 5 0.4 1 0.2 1 0.1 1 0.2
2015-08-17 Arizona 0.25 0.1 2 0.4 -2.5 -0.3 2 0.2 0.5 0.1 0.25 0 1 0.2
2015-08-18 Arizona 2 0.4 8 1.5 0 0 11 0.9 2.75 0.5 2.25 0.3 3 0.5
2015-08-19 Arizona 2.75 0.6 6 1.2 0.5 0.1 14 1.2 3 0.5 1 0.1 2 0.3
2015-08-20 San Francisco -1 -0.2 0 0 -4 -0.4 -4 -0.4 -0.5 -0.1 -0.75 -0.1 0 0
2015-08-21 San Francisco 3.5 0.7 10 2.3 2.5 0.3 18 1.7 4.25 0.8 4 0.5 4 0.6
2015-08-22 San Francisco 0.5 0.1 0 0 -2.5 -0.3 3 0.3 0.5 0.1 -1.75 -0.3 0 0
2015-08-23 San Francisco 8.5 1.8 21 4.6 8.5 1.1 43 4.3 9.75 1.8 9 1.3 9 1.4
2015-08-24 Miami 4.25 0.9 12 2.7 4 0.5 22 2.2 5 0.9 4.25 0.6 5 0.8
2015-08-25 Miami 4.75 1 12 2.4 4 0.5 24 2.4 4.75 0.9 5 0.6 5 0.8
2015-08-26 Miami 10.25 2.1 25 5.1 12.5 1.5 52 5 11.25 2 9.5 1.2 11 1.7

Player History

Year Age Team G PA H HR RBI SB BA
2015 28 Pittsburgh 122 530 133 20 85 6 0.300
2014 27 Pittsburgh 146 648 172 25 83 18 0.314
2013 26 Pittsburgh 157 674 185 21 84 27 0.317
2012 25 Pittsburgh 157 673 194 31 96 20 0.327
2011 24 Pittsburgh 158 678 148 23 89 23 0.259
2010 23 Pittsburgh 154 653 163 16 56 33 0.286
2009 22 Pittsburgh 108 493 124 12 54 22 0.286
Similar Players

Similar Players

Sorry! We don't enough data on this player to make significant comparisons. This is likely due to the fact that this player is new to the league, or is an unknown commodity in terms of talent.